Time;durP1;ratioP1;P1;durP2;ratioP2;P2;SDS_P1;SDS_P2;PMS_P1;PMS_P2;Temp;Humidity;BMP_temperature;BMP_pressure;BME280_temperature;BME280_humidity;BME280_pressure;Samples;Min_cycle;Max_cycle;Signal;HPM_P1;HPM_P2
2022/07/23 00:00:52;;;;;;;;;;;26.70;49.20;;;;;;5023890;28;88067;-36
2022/07/23 00:03:18;;;;;;;;;;;26.60;49.00;;;;;;5022985;28;88082;-36
2022/07/23 00:05:43;;;;;;;;;;;26.60;49.00;;;;;;5021474;28;87278;-36
2022/07/23 00:08:09;;;;;;;;;;;26.60;49.10;;;;;;5022794;28;87930;-36
2022/07/23 00:10:34;;;;;;;;;;;26.60;49.00;;;;;;5022831;28;87875;-36
2022/07/23 00:13:00;;;;;;;;;;;26.60;49.00;;;;;;5023785;28;88433;-36
2022/07/23 00:15:26;;;;;;;;;;;26.60;49.00;;;;;;5025769;28;87385;-36
2022/07/23 00:17:51;;;;;;;;;;;26.60;49.00;;;;;;5023088;28;87148;-36
2022/07/23 00:20:17;;;;;;;;;;;26.50;49.00;;;;;;5023119;28;87662;-36
2022/07/23 00:22:50;;;;;;;;;;;26.50;48.90;;;;;;5022881;28;87282;-36
2022/07/23 00:25:15;;;;;;;;;;;26.50;49.00;;;;;;5023491;28;86386;-36
2022/07/23 00:27:41;;;;;;;;;;;26.50;49.00;;;;;;5023276;28;86955;-36
2022/07/23 00:30:07;;;;;;;;;;;26.50;48.90;;;;;;5022704;28;88167;-36
2022/07/23 00:32:33;;;;;;;;;;;26.50;48.90;;;;;;5022072;28;88097;-36
2022/07/23 00:34:58;;;;;;;;;;;26.40;49.00;;;;;;5025422;28;88322;-36
2022/07/23 00:37:24;;;;;;;;;;;26.40;49.00;;;;;;5023048;28;87259;-36
2022/07/23 00:39:49;;;;;;;;;;;26.40;49.00;;;;;;5022819;28;87439;-36
2022/07/23 00:42:14;;;;;;;;;;;26.40;48.90;;;;;;5022356;28;88369;-36
2022/07/23 00:44:40;;;;;;;;;;;26.40;48.90;;;;;;5022892;28;87154;-36
2022/07/23 00:47:05;;;;;;;;;;;26.30;48.90;;;;;;5022730;28;87667;-36
2022/07/23 00:49:31;;;;;;;;;;;26.30;48.90;;;;;;5022868;28;87362;-36
2022/07/23 00:52:00;;;;;;;;;;;26.30;48.90;;;;;;5022607;28;87161;-36
2022/07/23 00:54:26;;;;;;;;;;;26.30;48.90;;;;;;5022081;28;87347;-36
2022/07/23 00:56:52;;;;;;;;;;;26.30;48.90;;;;;;5024651;28;89104;-36
2022/07/23 00:59:18;;;;;;;;;;;26.30;48.90;;;;;;5022652;28;88390;-36
2022/07/23 01:01:45;;;;;;;;;;;26.30;48.90;;;;;;5022307;28;87989;-36
2022/07/23 01:04:10;;;;;;;;;;;26.20;48.80;;;;;;5022520;28;87062;-36
2022/07/23 01:06:38;;;;;;;;;;;26.20;48.80;;;;;;5022285;28;89112;-36
2022/07/23 01:09:04;;;;;;;;;;;26.20;48.80;;;;;;5021026;28;87988;-36
2022/07/23 01:11:31;;;;;;;;;;;26.20;48.90;;;;;;5022346;28;87141;-36
2022/07/23 01:13:56;;;;;;;;;;;26.10;48.80;;;;;;5022930;28;86406;-36
2022/07/23 01:16:22;;;;;;;;;;;26.10;48.80;;;;;;5021690;28;89488;-36
2022/07/23 01:18:47;;;;;;;;;;;26.10;48.80;;;;;;5025370;28;87090;-36
2022/07/23 01:21:17;;;;;;;;;;;26.10;48.80;;;;;;5019772;28;90743;-36
2022/07/23 01:23:43;;;;;;;;;;;26.10;48.80;;;;;;5022096;28;87160;-36
2022/07/23 01:26:08;;;;;;;;;;;26.00;48.70;;;;;;5022294;28;87495;-36
2022/07/23 01:28:34;;;;;;;;;;;26.00;48.80;;;;;;5021792;28;88162;-36
2022/07/23 01:30:59;;;;;;;;;;;26.00;48.80;;;;;;5021833;28;86937;-36
2022/07/23 01:33:25;;;;;;;;;;;26.00;48.80;;;;;;5022213;28;87773;-36
2022/07/23 01:35:50;;;;;;;;;;;26.00;48.80;;;;;;5021843;28;88216;-36
2022/07/23 01:38:16;;;;;;;;;;;26.00;48.80;;;;;;5022588;28;86409;-36
2022/07/23 01:40:41;;;;;;;;;;;26.00;48.90;;;;;;5024841;28;86789;-36
2022/07/23 01:43:07;;;;;;;;;;;25.90;48.70;;;;;;5022057;28;87133;-36
2022/07/23 01:45:32;;;;;;;;;;;25.90;48.80;;;;;;5020847;28;88095;-36
2022/07/23 01:47:58;;;;;;;;;;;25.90;48.70;;;;;;5021389;28;89452;-36
2022/07/23 01:50:23;;;;;;;;;;;25.80;48.80;;;;;;5021929;28;87130;-36
2022/07/23 01:52:49;;;;;;;;;;;25.80;48.70;;;;;;5021749;28;87766;-36
2022/07/23 01:55:14;;;;;;;;;;;25.80;48.60;;;;;;5021486;28;88371;-36
2022/07/23 01:57:40;;;;;;;;;;;25.80;48.80;;;;;;5022101;28;87174;-36
2022/07/23 02:00:06;;;;;;;;;;;25.70;48.70;;;;;;5021845;28;87247;-36
2022/07/23 02:02:31;;;;;;;;;;;25.70;48.60;;;;;;5024984;28;87316;-36
2022/07/23 02:04:57;;;;;;;;;;;25.70;48.60;;;;;;5021451;28;87290;-36
2022/07/23 02:07:22;;;;;;;;;;;25.70;48.70;;;;;;5021416;28;88236;-36
2022/07/23 02:09:47;;;;;;;;;;;25.70;48.70;;;;;;5020774;28;88498;-36
2022/07/23 02:12:13;;;;;;;;;;;25.70;48.70;;;;;;5021853;28;87654;-36
2022/07/23 02:14:39;;;;;;;;;;;25.70;48.60;;;;;;5021163;28;89350;-36
2022/07/23 02:17:04;;;;;;;;;;;25.60;48.60;;;;;;5021605;28;87117;-36
2022/07/23 02:19:30;;;;;;;;;;;25.60;48.50;;;;;;5022152;28;87490;-36
2022/07/23 02:21:55;;;;;;;;;;;25.60;48.60;;;;;;5024657;28;88082;-36
2022/07/23 02:24:21;;;;;;;;;;;25.60;48.60;;;;;;5027760;28;87270;-36
2022/07/23 02:26:46;;;;;;;;;;;25.50;48.50;;;;;;5025078;28;87373;-36
2022/07/23 02:29:12;;;;;;;;;;;25.50;48.50;;;;;;5024755;28;87277;-36
2022/07/23 02:31:37;;;;;;;;;;;25.50;48.60;;;;;;5024926;28;87404;-36
2022/07/23 02:34:03;;;;;;;;;;;25.50;48.50;;;;;;5023678;28;89030;-36
2022/07/23 02:36:29;;;;;;;;;;;25.50;48.50;;;;;;5024435;28;87065;-36
2022/07/23 02:38:54;;;;;;;;;;;25.40;48.60;;;;;;5022880;28;87746;-36
2022/07/23 02:41:20;;;;;;;;;;;25.40;48.50;;;;;;5024311;28;88099;-36
2022/07/23 02:43:45;;;;;;;;;;;25.40;48.50;;;;;;5027687;28;87017;-36
2022/07/23 02:46:11;;;;;;;;;;;25.40;49.10;;;;;;5023876;28;87247;-36
2022/07/23 02:48:36;;;;;;;;;;;25.40;48.50;;;;;;5024596;28;87556;-36
2022/07/23 02:51:02;;;;;;;;;;;25.30;48.50;;;;;;5024697;28;87455;-36
2022/07/23 02:53:27;;;;;;;;;;;25.30;48.50;;;;;;5024111;28;88101;-36
2022/07/23 02:55:52;;;;;;;;;;;25.30;48.50;;;;;;5024323;28;87306;-36
2022/07/23 02:58:18;;;;;;;;;;;25.30;48.50;;;;;;5023905;28;87939;-36
2022/07/23 03:00:43;;;;;;;;;;;25.20;48.40;;;;;;5023929;28;88095;-36
2022/07/23 03:03:09;;;;;;;;;;;25.20;48.50;;;;;;5024387;28;87151;-36
2022/07/23 03:05:34;;;;;;;;;;;25.20;48.40;;;;;;5026677;28;87092;-36
2022/07/23 03:08:00;;;;;;;;;;;25.20;48.50;;;;;;5024051;28;87179;-36
2022/07/23 03:10:26;;;;;;;;;;;25.20;48.40;;;;;;5024307;28;87621;-36
2022/07/23 03:12:51;;;;;;;;;;;25.10;48.40;;;;;;5023992;28;88075;-36
2022/07/23 03:15:17;;;;;;;;;;;25.20;48.50;;;;;;5024556;28;86542;-36
2022/07/23 03:17:42;;;;;;;;;;;25.10;48.40;;;;;;5024251;28;86974;-36
2022/07/23 03:20:08;;;;;;;;;;;25.10;48.50;;;;;;5023599;28;88508;-36
2022/07/23 03:22:33;;;;;;;;;;;25.10;48.50;;;;;;5023102;28;88081;-36
2022/07/23 03:24:59;;;;;;;;;;;25.00;48.40;;;;;;5023784;28;88457;-36
2022/07/23 03:27:26;;;;;;;;;;;25.00;48.40;;;;;;5026216;28;89324;-36
2022/07/23 03:29:52;;;;;;;;;;;25.00;48.40;;;;;;5024015;28;87179;-36
2022/07/23 03:32:17;;;;;;;;;;;25.00;48.40;;;;;;5022705;28;91260;-36
2022/07/23 03:34:43;;;;;;;;;;;25.00;48.40;;;;;;5023844;28;87394;-36
2022/07/23 03:37:08;;;;;;;;;;;25.00;48.40;;;;;;5024019;28;87511;-36
2022/07/23 03:39:34;;;;;;;;;;;25.00;48.40;;;;;;5023586;28;87312;-36
2022/07/23 03:42:00;;;;;;;;;;;24.90;48.40;;;;;;5023857;28;87216;-36
2022/07/23 03:44:25;;;;;;;;;;;24.90;48.40;;;;;;5023511;28;89068;-36
2022/07/23 03:46:51;;;;;;;;;;;24.90;48.50;;;;;;5022722;28;88907;-36
2022/07/23 03:49:16;;;;;;;;;;;24.90;48.50;;;;;;5026633;28;87181;-36
2022/07/23 03:51:42;;;;;;;;;;;24.90;48.50;;;;;;5023316;28;88205;-36
2022/07/23 03:54:07;;;;;;;;;;;24.80;48.50;;;;;;5023349;28;87068;-36
2022/07/23 03:56:34;;;;;;;;;;;24.80;48.40;;;;;;5023920;28;87592;-36
2022/07/23 03:59:00;;;;;;;;;;;24.80;48.50;;;;;;5022970;28;89488;-36
2022/07/23 04:01:26;;;;;;;;;;;24.80;48.50;;;;;;5023357;28;87108;-36
2022/07/23 04:03:51;;;;;;;;;;;24.80;48.50;;;;;;5024125;28;87513;-36
2022/07/23 04:06:17;;;;;;;;;;;24.80;48.50;;;;;;5022931;28;88236;-36
2022/07/23 04:08:42;;;;;;;;;;;24.80;48.50;;;;;;5023240;28;87170;-36
2022/07/23 04:11:08;;;;;;;;;;;24.70;48.50;;;;;;5025254;28;88112;-36
2022/07/23 04:13:33;;;;;;;;;;;24.70;48.60;;;;;;5023204;28;87174;-36
2022/07/23 04:15:59;;;;;;;;;;;24.70;48.50;;;;;;5023196;28;87553;-36
2022/07/23 04:18:24;;;;;;;;;;;24.70;48.60;;;;;;5023069;28;88151;-36
2022/07/23 04:20:53;;;;;;;;;;;24.70;48.50;;;;;;5023161;28;87081;-36
2022/07/23 04:23:18;;;;;;;;;;;24.70;48.60;;;;;;5023003;28;87419;-36
2022/07/23 04:25:44;;;;;;;;;;;24.60;48.60;;;;;;5022662;28;88105;-36
2022/07/23 04:28:09;;;;;;;;;;;24.60;48.60;;;;;;5023706;28;86137;-36
2022/07/23 04:30:35;;;;;;;;;;;24.60;48.70;;;;;;5022941;28;87125;-36
2022/07/23 04:33:00;;;;;;;;;;;24.50;48.60;;;;;;5025357;28;89460;-36
2022/07/23 04:35:26;;;;;;;;;;;24.50;48.70;;;;;;5022447;28;88146;-36
2022/07/23 04:37:51;;;;;;;;;;;24.50;48.70;;;;;;5022649;28;88156;-36
2022/07/23 04:40:17;;;;;;;;;;;24.60;48.80;;;;;;5022850;28;88462;-36
2022/07/23 04:42:42;;;;;;;;;;;24.50;48.80;;;;;;5022174;28;87500;-36
2022/07/23 04:45:08;;;;;;;;;;;24.50;48.80;;;;;;5021619;28;88000;-36
2022/07/23 04:47:34;;;;;;;;;;;24.50;48.80;;;;;;5022851;28;87483;-36
2022/07/23 04:49:59;;;;;;;;;;;24.50;48.80;;;;;;5022180;28;87910;-36
2022/07/23 04:52:25;;;;;;;;;;;24.50;48.90;;;;;;5025200;28;87928;-36
2022/07/23 04:54:50;;;;;;;;;;;24.50;48.90;;;;;;5022257;28;87042;-36
2022/07/23 04:57:16;;;;;;;;;;;24.40;48.90;;;;;;5021951;28;87842;-36
2022/07/23 04:59:41;;;;;;;;;;;24.50;49.00;;;;;;5021617;28;87960;-36
2022/07/23 05:02:07;;;;;;;;;;;24.40;48.90;;;;;;5022418;28;87708;-36
2022/07/23 05:04:33;;;;;;;;;;;24.40;49.00;;;;;;5021482;28;88608;-36
2022/07/23 05:06:58;;;;;;;;;;;24.40;49.00;;;;;;5022029;28;87172;-36
2022/07/23 05:09:24;;;;;;;;;;;24.50;49.00;;;;;;5022079;28;87655;-36
2022/07/23 05:11:49;;;;;;;;;;;24.40;49.00;;;;;;5021765;28;87197;-36
2022/07/23 05:14:15;;;;;;;;;;;24.40;49.10;;;;;;5024890;28;87151;-36
2022/07/23 05:16:40;;;;;;;;;;;24.30;49.10;;;;;;5022177;28;87561;-36
2022/07/23 05:19:06;;;;;;;;;;;24.40;49.10;;;;;;5021943;28;87207;-36
2022/07/23 05:21:32;;;;;;;;;;;24.40;49.20;;;;;;5021771;28;88923;-36
2022/07/23 05:23:57;;;;;;;;;;;24.30;49.20;;;;;;5020859;28;88940;-36
2022/07/23 05:26:23;;;;;;;;;;;24.30;49.20;;;;;;5022073;28;87180;-36
2022/07/23 05:28:48;;;;;;;;;;;24.30;49.20;;;;;;5021829;28;86975;-36
2022/07/23 05:31:14;;;;;;;;;;;24.30;49.20;;;;;;5021478;28;87850;-36
2022/07/23 05:33:39;;;;;;;;;;;24.30;49.30;;;;;;5021872;28;87154;-36
2022/07/23 05:36:05;;;;;;;;;;;24.30;49.30;;;;;;5024221;28;87558;-36
2022/07/23 05:38:31;;;;;;;;;;;24.30;49.30;;;;;;5021831;28;87213;-36
2022/07/23 05:40:56;;;;;;;;;;;24.30;49.30;;;;;;5022372;28;87454;-36
2022/07/23 05:43:22;;;;;;;;;;;24.30;49.40;;;;;;5021257;28;88221;-36
2022/07/23 05:45:48;;;;;;;;;;;24.30;49.40;;;;;;5020954;28;87048;-36
2022/07/23 05:48:13;;;;;;;;;;;24.30;49.50;;;;;;5021187;28;88934;-36
2022/07/23 05:50:38;;;;;;;;;;;24.30;49.50;;;;;;5021277;28;88024;-36
2022/07/23 05:53:04;;;;;;;;;;;24.30;49.50;;;;;;5021399;28;87115;-36
2022/07/23 05:55:31;;;;;;;;;;;24.30;50.20;;;;;;5023476;28;87325;-36
2022/07/23 05:57:57;;;;;;;;;;;24.30;49.60;;;;;;5027635;28;87979;-36
2022/07/23 06:00:23;;;;;;;;;;;24.30;49.80;;;;;;5025019;28;87576;-36
2022/07/23 06:02:48;;;;;;;;;;;24.30;49.80;;;;;;5024629;28;88042;-36
2022/07/23 06:05:14;;;;;;;;;;;24.30;49.80;;;;;;5025045;28;86367;-36
2022/07/23 06:07:40;;;;;;;;;;;24.30;49.80;;;;;;5024947;28;87068;-36
2022/07/23 06:10:05;;;;;;;;;;;24.30;49.80;;;;;;5024356;28;87937;-36
2022/07/23 06:12:31;;;;;;;;;;;24.30;49.90;;;;;;5024173;28;87946;-36
2022/07/23 06:14:56;;;;;;;;;;;24.30;49.90;;;;;;5024739;28;88852;-36
2022/07/23 06:17:22;;;;;;;;;;;24.30;49.90;;;;;;5022822;28;91308;-36
2022/07/23 06:19:47;;;;;;;;;;;24.30;50.00;;;;;;5027618;28;87013;-36
2022/07/23 06:22:13;;;;;;;;;;;24.30;50.10;;;;;;5024023;28;89604;-36
2022/07/23 06:24:38;;;;;;;;;;;24.30;50.10;;;;;;5024763;28;87929;-35
2022/07/23 06:27:05;;;;;;;;;;;24.30;50.10;;;;;;5024484;28;87445;-36
2022/07/23 06:29:30;;;;;;;;;;;24.30;50.10;;;;;;5024662;28;87330;-36
2022/07/23 06:31:55;;;;;;;;;;;24.30;50.20;;;;;;5024381;28;87122;-36
2022/07/23 06:34:21;;;;;;;;;;;24.30;50.20;;;;;;5024458;28;87971;-36
2022/07/23 06:36:47;;;;;;;;;;;24.30;50.20;;;;;;5023265;28;88164;-36
2022/07/23 06:39:12;;;;;;;;;;;24.30;50.20;;;;;;5024406;28;87491;-36
2022/07/23 06:41:38;;;;;;;;;;;24.30;50.10;;;;;;5026739;28;87490;-36
2022/07/23 06:44:03;;;;;;;;;;;24.30;50.20;;;;;;5024308;28;87131;-36
2022/07/23 06:46:29;;;;;;;;;;;24.30;50.30;;;;;;5024172;28;87703;-36
2022/07/23 06:48:54;;;;;;;;;;;24.30;50.30;;;;;;5023951;28;88088;-35
2022/07/23 06:51:20;;;;;;;;;;;24.30;50.30;;;;;;5024169;28;87117;-36
2022/07/23 06:53:46;;;;;;;;;;;24.30;50.30;;;;;;5024201;28;87953;-36
2022/07/23 06:56:11;;;;;;;;;;;24.30;50.30;;;;;;5023651;28;87867;-36
2022/07/23 06:58:37;;;;;;;;;;;24.30;50.30;;;;;;5024210;28;87131;-37
2022/07/23 07:01:02;;;;;;;;;;;24.30;50.30;;;;;;5026250;28;88045;-36
2022/07/23 07:03:28;;;;;;;;;;;24.30;50.30;;;;;;5024188;28;87133;-36
2022/07/23 07:05:53;;;;;;;;;;;24.30;50.30;;;;;;5023009;28;87457;-37
2022/07/23 07:08:19;;;;;;;;;;;24.30;50.40;;;;;;5023579;28;87935;-36
2022/07/23 07:10:45;;;;;;;;;;;24.30;50.40;;;;;;5023734;28;87179;-36
2022/07/23 07:13:10;;;;;;;;;;;24.30;50.50;;;;;;5024029;28;87519;-36
2022/07/23 07:15:36;;;;;;;;;;;24.30;50.50;;;;;;5023542;28;88201;-36
2022/07/23 07:18:01;;;;;;;;;;;24.30;50.50;;;;;;5024475;28;86451;-36
2022/07/23 07:20:27;;;;;;;;;;;24.30;50.50;;;;;;5023818;28;87233;-36
2022/07/23 07:22:52;;;;;;;;;;;24.30;50.50;;;;;;5026244;28;88119;-37
2022/07/23 07:25:18;;;;;;;;;;;24.30;50.60;;;;;;5022912;28;88042;-36
2022/07/23 07:27:43;;;;;;;;;;;24.30;50.50;;;;;;5023458;28;87920;-37
2022/07/23 07:30:09;;;;;;;;;;;24.30;50.60;;;;;;5023459;28;87050;-37
2022/07/23 07:32:36;;;;;;;;;;;24.30;50.50;;;;;;5023268;28;88410;-36
2022/07/23 07:35:04;;;;;;;;;;;24.30;50.60;;;;;;5023147;28;88058;-36
2022/07/23 07:37:30;;;;;;;;;;;24.30;50.70;;;;;;5023434;28;87057;-37
2022/07/23 07:39:55;;;;;;;;;;;24.30;50.60;;;;;;5023492;28;87485;-36
2022/07/23 07:42:21;;;;;;;;;;;24.30;50.70;;;;;;5023525;28;87465;-36
2022/07/23 07:44:47;;;;;;;;;;;24.30;50.70;;;;;;5026322;28;87152;-36
2022/07/23 07:47:15;;;;;;;;;;;24.30;50.70;;;;;;5022757;28;87833;-36
2022/07/23 07:49:43;;;;;;;;;;;24.30;50.70;;;;;;5022608;28;88085;-37
2022/07/23 07:52:09;;;;;;;;;;;24.30;50.70;;;;;;5023153;28;88384;-36
2022/07/23 07:54:35;;;;;;;;;;;24.30;50.70;;;;;;5022744;28;88474;-37
2022/07/23 07:57:00;;;;;;;;;;;24.40;50.70;;;;;;5023238;28;87019;-36
2022/07/23 07:59:25;;;;;;;;;;;24.30;50.70;;;;;;5023208;28;87470;-36
2022/07/23 08:01:51;;;;;;;;;;;24.40;50.80;;;;;;5022883;28;87175;-36
2022/07/23 08:04:17;;;;;;;;;;;24.40;50.80;;;;;;5023069;28;87499;-36
2022/07/23 08:06:42;;;;;;;;;;;24.40;50.70;;;;;;5025734;28;89004;-36
2022/07/23 08:09:08;;;;;;;;;;;24.40;50.70;;;;;;5022918;28;87187;-36
2022/07/23 08:11:33;;;;;;;;;;;24.40;50.70;;;;;;5022886;28;87615;-36
2022/07/23 08:13:59;;;;;;;;;;;24.40;50.70;;;;;;5021812;28;89161;-36
2022/07/23 08:16:24;;;;;;;;;;;24.40;50.70;;;;;;5022974;28;87241;-36
2022/07/23 08:18:50;;;;;;;;;;;24.40;50.70;;;;;;5022627;28;87636;-36
2022/07/23 08:21:15;;;;;;;;;;;24.40;50.70;;;;;;5022459;28;88208;-36
2022/07/23 08:23:41;;;;;;;;;;;24.40;50.80;;;;;;5022727;28;87028;-36
2022/07/23 08:26:06;;;;;;;;;;;24.40;50.70;;;;;;5022536;28;87127;-36
2022/07/23 08:28:32;;;;;;;;;;;24.40;50.70;;;;;;5025253;28;88212;-36
2022/07/23 08:30:58;;;;;;;;;;;24.50;50.70;;;;;;5023319;28;87467;-36
2022/07/23 08:33:24;;;;;;;;;;;24.50;50.80;;;;;;5022360;28;88086;-36
2022/07/23 08:35:52;;;;;;;;;;;24.50;50.80;;;;;;5022603;28;87028;-36
2022/07/23 08:38:19;;;;;;;;;;;24.50;50.80;;;;;;5021783;28;88708;-36
2022/07/23 08:40:49;;;;;;;;;;;24.50;50.70;;;;;;5021967;28;88244;-36
2022/07/23 08:43:16;;;;;;;;;;;24.50;50.70;;;;;;5022164;28;87143;-36
2022/07/23 08:45:43;;;;;;;;;;;24.50;50.70;;;;;;5022222;28;87388;-36
2022/07/23 08:48:11;;;;;;;;;;;24.50;50.70;;;;;;5022040;28;87239;-36
2022/07/23 08:50:37;;;;;;;;;;;24.50;50.60;;;;;;5025291;28;87050;-36
2022/07/23 08:53:05;;;;;;;;;;;24.50;50.70;;;;;;5021780;28;88068;-36
2022/07/23 08:55:30;;;;;;;;;;;24.50;50.70;;;;;;5022553;28;86269;-36
2022/07/23 08:57:56;;;;;;;;;;;24.60;50.70;;;;;;5022302;28;86910;-36
2022/07/23 09:00:21;;;;;;;;;;;24.60;50.70;;;;;;5021833;28;87962;-36
2022/07/23 09:02:47;;;;;;;;;;;24.60;50.70;;;;;;5021434;28;88119;-37
2022/07/23 09:05:13;;;;;;;;;;;24.60;50.60;;;;;;5022128;28;88382;-37
2022/07/23 09:07:58;;;;;;;;;;;24.60;50.60;;;;;;5021816;28;88057;-36
2022/07/23 09:10:23;;;;;;;;;;;24.60;50.60;;;;;;5025025;28;87229;-36
2022/07/23 09:12:49;;;;;;;;;;;24.60;50.70;;;;;;5021621;28;88190;-36
2022/07/23 09:15:14;;;;;;;;;;;24.60;50.60;;;;;;5022181;28;87028;-36
2022/07/23 09:17:41;;;;;;;;;;;24.60;50.60;;;;;;5020535;28;89158;-36
2022/07/23 09:20:08;;;;;;;;;;;24.60;50.60;;;;;;5021892;28;88482;-36
2022/07/23 09:22:34;;;;;;;;;;;24.70;50.60;;;;;;5021887;28;87838;-36
2022/07/23 09:25:18;;;;;;;;;;;24.70;50.70;;;;;;5021975;28;87034;-36
2022/07/23 09:27:46;;;;;;;;;;;24.70;50.60;;;;;;5020961;28;89109;-36
2022/07/23 09:30:12;;;;;;;;;;;24.70;50.60;;;;;;5023530;28;87175;-36
2022/07/23 09:32:38;;;;;;;;;;;24.80;50.60;;;;;;5027996;28;87514;-36
2022/07/23 09:35:04;;;;;;;;;;;24.80;50.60;;;;;;5025394;28;87150;-36
2022/07/23 09:37:29;;;;;;;;;;;24.80;50.50;;;;;;5025479;28;87347;-36
2022/07/23 09:40:02;;;;;;;;;;;24.80;50.60;;;;;;5023488;28;89893;-36
2022/07/23 09:42:28;;;;;;;;;;;24.80;50.50;;;;;;5025460;28;87006;-36
2022/07/23 09:44:55;;;;;;;;;;;24.80;50.50;;;;;;5025632;28;87535;-36
2022/07/23 09:47:21;;;;;;;;;;;24.80;50.50;;;;;;5024261;28;88326;-36
2022/07/23 09:50:08;;;;;;;;;;;24.80;50.50;;;;;;5025102;28;87090;-36
2022/07/23 09:52:44;;;;;;;;;;;24.80;50.50;;;;;;5024385;28;89019;-36
2022/07/23 09:55:10;;;;;;;;;;;24.80;50.50;;;;;;5027414;28;89357;-36
2022/07/23 09:57:35;;;;;;;;;;;24.90;50.50;;;;;;5025099;28;86971;-36
2022/07/23 10:00:03;;;;;;;;;;;24.90;50.40;;;;;;5024214;28;88421;-36
2022/07/23 10:02:29;;;;;;;;;;;24.90;50.50;;;;;;5024825;28;87113;-36
2022/07/23 10:04:55;;;;;;;;;;;24.90;50.40;;;;;;5025002;28;87706;-36
2022/07/23 10:07:24;;;;;;;;;;;24.90;50.50;;;;;;5024519;28;89228;-36
2022/07/23 10:09:52;;;;;;;;;;;25.00;50.40;;;;;;5025027;28;86439;-36
2022/07/23 10:15:08;;;;;;;;;;;25.00;50.40;;;;;;5022157;28;88071;-36
2022/07/23 10:17:34;;;;;;;;;;;25.00;50.30;;;;;;5027157;28;88006;-36
2022/07/23 10:20:00;;;;;;;;;;;25.00;50.30;;;;;;5024489;28;87996;-36
2022/07/23 10:22:27;;;;;;;;;;;25.10;50.40;;;;;;5024772;28;87191;-36
2022/07/23 10:25:13;;;;;;;;;;;25.10;50.40;;;;;;5024605;28;88872;-36
2022/07/23 10:27:54;;;;;;;;;;;25.10;50.40;;;;;;5015909;28;88245;-36
2022/07/23 10:30:40;;;;;;;;;;;25.10;50.30;;;;;;5024660;28;87138;-36
2022/07/23 10:33:17;;;;;;;;;;;25.20;50.30;;;;;;5024386;28;87388;-36
2022/07/23 10:35:46;;;;;;;;;;;25.20;50.30;;;;;;5024652;28;87306;-36
2022/07/23 10:38:18;;;;;;;;;;;25.20;50.20;;;;;;5024455;28;87315;-36
2022/07/23 10:40:53;;;;;;;;;;;25.20;50.20;;;;;;5026948;28;87300;-36
2022/07/23 10:43:19;;;;;;;;;;;25.30;50.20;;;;;;5023738;28;88069;-36
2022/07/23 10:45:44;;;;;;;;;;;25.30;50.20;;;;;;5023578;28;88052;-36
2022/07/23 10:48:15;;;;;;;;;;;25.30;50.10;;;;;;5024068;28;88242;-36
2022/07/23 10:50:41;;;;;;;;;;;25.30;50.10;;;;;;5024260;28;87137;-36
2022/07/23 10:53:08;;;;;;;;;;;25.30;50.00;;;;;;5024168;28;87557;-36
2022/07/23 10:55:33;;;;;;;;;;;25.40;50.10;;;;;;5023566;28;90303;-36
2022/07/23 10:57:59;;;;;;;;;;;25.40;50.00;;;;;;5024124;28;86889;-36
2022/07/23 11:00:28;;;;;;;;;;;25.40;50.00;;;;;;5027070;28;87428;-36
2022/07/23 11:02:55;;;;;;;;;;;25.40;49.90;;;;;;5023897;28;87249;-36
2022/07/23 11:05:22;;;;;;;;;;;25.50;49.90;;;;;;5023780;28;87479;-37
2022/07/23 11:08:07;;;;;;;;;;;25.50;49.90;;;;;;5023337;28;89099;-36
2022/07/23 11:10:34;;;;;;;;;;;25.50;49.90;;;;;;5023962;28;87116;-36
2022/07/23 11:13:18;;;;;;;;;;;25.50;49.80;;;;;;5023427;28;88865;-36
2022/07/23 11:16:04;;;;;;;;;;;25.50;49.80;;;;;;5023610;28;88162;-36
2022/07/23 11:18:46;;;;;;;;;;;25.50;49.80;;;;;;5023683;28;87070;-36
2022/07/23 11:21:21;;;;;;;;;;;25.60;49.80;;;;;;5023958;28;86986;-36
2022/07/23 11:24:06;;;;;;;;;;;25.60;50.50;;;;;;5026178;28;89319;-36
2022/07/23 11:26:44;;;;;;;;;;;25.70;49.90;;;;;;5024163;28;89074;-36
2022/07/23 11:29:27;;;;;;;;;;;25.70;49.80;;;;;;5023362;28;88084;-36
2022/07/23 11:31:53;;;;;;;;;;;25.70;49.80;;;;;;5023343;28;87260;-36
2022/07/23 11:34:31;;;;;;;;;;;25.70;49.80;;;;;;5022852;28;88667;-36
2022/07/23 11:36:57;;;;;;;;;;;25.70;49.70;;;;;;5023062;28;89245;-36
2022/07/23 11:39:24;;;;;;;;;;;25.80;49.70;;;;;;5023678;28;87063;-36
2022/07/23 11:41:50;;;;;;;;;;;25.80;49.60;;;;;;5023597;28;87343;-36
2022/07/23 11:44:25;;;;;;;;;;;25.80;49.60;;;;;;5022889;28;87277;-37
2022/07/23 11:46:58;;;;;;;;;;;25.80;49.60;;;;;;5026412;28;87049;-36
2022/07/23 11:49:24;;;;;;;;;;;25.90;49.60;;;;;;5022764;28;90389;-36
2022/07/23 11:52:08;;;;;;;;;;;25.90;49.60;;;;;;5023596;28;86198;-37
2022/07/23 11:54:35;;;;;;;;;;;25.90;49.60;;;;;;5023161;28;87101;-36
2022/07/23 11:57:01;;;;;;;;;;;26.00;49.60;;;;;;5022513;28;87209;-37
2022/07/23 11:59:28;;;;;;;;;;;25.90;49.50;;;;;;5022472;28;88059;-36
2022/07/23 12:02:01;;;;;;;;;;;26.00;49.50;;;;;;5023111;28;88338;-36
2022/07/23 12:04:40;;;;;;;;;;;26.00;49.50;;;;;;5022447;28;88246;-36
2022/07/23 12:07:23;;;;;;;;;;;26.00;49.30;;;;;;5023059;28;87120;-36
2022/07/23 12:09:49;;;;;;;;;;;26.10;49.40;;;;;;5025570;28;87543;-36
2022/07/23 12:12:15;;;;;;;;;;;26.10;49.40;;;;;;5022891;28;87682;-36
2022/07/23 12:14:56;;;;;;;;;;;26.10;49.30;;;;;;5022977;28;87497;-36
2022/07/23 12:17:28;;;;;;;;;;;26.10;49.20;;;;;;5023154;28;86386;-36
2022/07/23 12:19:54;;;;;;;;;;;26.10;49.20;;;;;;5023465;28;87127;-36
2022/07/23 12:22:20;;;;;;;;;;;26.20;49.20;;;;;;5022813;28;87444;-36
2022/07/23 12:25:04;;;;;;;;;;;26.20;49.20;;;;;;5021756;28;89047;-36
2022/07/23 12:27:29;;;;;;;;;;;26.20;49.10;;;;;;5023030;28;87103;-36
2022/07/23 12:29:55;;;;;;;;;;;26.20;49.10;;;;;;5022774;28;87412;-36
2022/07/23 12:32:28;;;;;;;;;;;26.30;49.10;;;;;;5025088;28;88171;-36
2022/07/23 12:35:07;;;;;;;;;;;26.30;49.10;;;;;;5022954;28;87437;-37
2022/07/23 12:37:34;;;;;;;;;;;26.30;49.00;;;;;;5022024;28;89604;-36
2022/07/23 12:40:20;;;;;;;;;;;26.30;49.00;;;;;;5022475;28;87179;-36
2022/07/23 12:42:47;;;;;;;;;;;26.30;48.90;;;;;;5022473;28;86579;-37
2022/07/23 12:45:13;;;;;;;;;;;26.40;49.00;;;;;;5021458;28;89411;-37
2022/07/23 12:47:55;;;;;;;;;;;26.40;49.00;;;;;;5022627;28;87091;-36
2022/07/23 12:50:50;;;;;;;;;;;26.50;48.90;;;;;;5021790;28;88063;-36
2022/07/23 12:53:16;;;;;;;;;;;26.50;48.90;;;;;;5012129;28;88055;-36
2022/07/23 12:55:41;;;;;;;;;;;26.50;48.90;;;;;;5025125;28;87145;-36
2022/07/23 12:58:12;;;;;;;;;;;26.50;48.70;;;;;;5022069;28;88050;-36
2022/07/23 13:00:57;;;;;;;;;;;26.60;48.80;;;;;;5022003;28;87436;-36
2022/07/23 13:03:32;;;;;;;;;;;26.60;48.80;;;;;;5021890;28;88944;-36
2022/07/23 13:05:58;;;;;;;;;;;26.60;48.70;;;;;;5020868;28;88040;-36
2022/07/23 13:08:24;;;;;;;;;;;26.70;48.80;;;;;;5022587;28;86384;-36
2022/07/23 13:10:51;;;;;;;;;;;26.70;48.80;;;;;;5022236;28;87588;-37
2022/07/23 13:13:17;;;;;;;;;;;26.70;48.70;;;;;;5021653;28;87145;-36
2022/07/23 13:15:43;;;;;;;;;;;26.70;48.70;;;;;;5024271;28;88094;-36
2022/07/23 13:18:09;;;;;;;;;;;26.80;48.70;;;;;;5021555;28;87197;-36
2022/07/23 13:20:34;;;;;;;;;;;26.80;48.70;;;;;;5022328;28;87393;-37
2022/07/23 13:23:00;;;;;;;;;;;26.80;48.70;;;;;;5021832;28;87300;-36
2022/07/23 13:25:26;;;;;;;;;;;26.80;48.70;;;;;;5021411;28;89893;-36
2022/07/23 13:27:51;;;;;;;;;;;26.90;48.70;;;;;;5021892;28;87053;-36
2022/07/23 13:30:17;;;;;;;;;;;26.90;48.70;;;;;;5021711;28;87099;-37
2022/07/23 13:32:43;;;;;;;;;;;27.00;48.80;;;;;;5021969;28;87430;-36
2022/07/23 13:35:08;;;;;;;;;;;27.00;49.40;;;;;;5021471;28;87061;-36
2022/07/23 13:37:34;;;;;;;;;;;27.00;48.80;;;;;;5024063;28;87500;-36
2022/07/23 13:40:00;;;;;;;;;;;27.00;48.70;;;;;;5021290;28;87962;-37
2022/07/23 13:42:25;;;;;;;;;;;27.10;48.80;;;;;;5021820;28;88492;-37
2022/07/23 13:44:50;;;;;;;;;;;27.10;48.80;;;;;;5021285;28;87166;-37
2022/07/23 13:47:16;;;;;;;;;;;27.20;48.80;;;;;;5021339;28;89737;-37
2022/07/23 13:49:42;;;;;;;;;;;27.20;48.40;;;;;;5021949;28;87478;-36
2022/07/23 13:52:07;;;;;;;;;;;27.30;48.30;;;;;;5020961;28;88033;-37
2022/07/23 13:54:32;;;;;;;;;;;27.30;48.50;;;;;;5021743;28;87054;-36
2022/07/23 13:56:58;;;;;;;;;;;27.30;48.50;;;;;;5021995;28;87538;-36
2022/07/23 13:59:24;;;;;;;;;;;27.30;48.30;;;;;;5023836;28;89338;-36
2022/07/23 14:01:49;;;;;;;;;;;27.30;48.40;;;;;;5021402;28;87563;-37
2022/07/23 14:04:15;;;;;;;;;;;27.40;48.20;;;;;;5021028;28;88944;-36
2022/07/23 14:06:40;;;;;;;;;;;27.40;48.50;;;;;;5020965;28;87397;-37
2022/07/23 14:09:06;;;;;;;;;;;27.40;48.30;;;;;;5019901;28;90499;-37
2022/07/23 14:11:31;;;;;;;;;;;27.50;48.00;;;;;;5021112;28;88165;-37
2022/07/23 14:13:58;;;;;;;;;;;27.50;47.60;;;;;;5019699;28;87131;-36
2022/07/23 14:16:24;;;;;;;;;;;27.50;47.80;;;;;;5022854;28;88763;-36
2022/07/23 14:18:49;;;;;;;;;;;27.60;47.70;;;;;;5024381;28;88603;-37